Dublin, Ohio
Current Conditions -  °F | °C
As of 2:53 PM on Wednesday 28 Jan 2015 (Local Time) from KOSU Reporting Station
Clear Clear  
Wind Chill: 18°   Ceiling: Unl
Heat Index: 26°   Visibility: 10mi
Dew Point: 13°   Wind: 7mph
Humidity: 58%   Direction: 140°SE
Pressure: 30.3"   Gusts: NA
Location:  40.11°N, 83.13°W
Report Text: KOSU 281953Z 14006KT 10SM CLR M03/M11 A3030 RMK AO2 SLP276 T10331106
Loading
Personal Weather Stations






























Interactive Weather Map New forecast layout! Learn more

10-Day Weather Forecast

Advertisements
Track Severe Weather on mobile